sensor_id;sensor_type;location;lat;lon;timestamp;temperature;humidity
41720;DHT22;27405;53.316;-6.294;2022-12-18T00:01:52;3.10;99.90
41720;DHT22;27405;53.316;-6.294;2022-12-18T00:04:22;3.10;99.90
41720;DHT22;27405;53.316;-6.294;2022-12-18T00:06:49;3.10;99.90
41720;DHT22;27405;53.316;-6.294;2022-12-18T00:09:15;3.10;99.90
41720;DHT22;27405;53.316;-6.294;2022-12-18T00:11:41;3.10;99.90
41720;DHT22;27405;53.316;-6.294;2022-12-18T00:14:08;3.10;99.90
41720;DHT22;27405;53.316;-6.294;2022-12-18T00:16:34;3.10;99.90
41720;DHT22;27405;53.316;-6.294;2022-12-18T00:19:03;3.10;99.90
41720;DHT22;27405;53.316;-6.294;2022-12-18T00:21:30;3.10;99.90
41720;DHT22;27405;53.316;-6.294;2022-12-18T00:23:57;3.20;99.90
41720;DHT22;27405;53.316;-6.294;2022-12-18T00:26:26;3.30;99.90
41720;DHT22;27405;53.316;-6.294;2022-12-18T00:28:52;3.40;99.90
41720;DHT22;27405;53.316;-6.294;2022-12-18T00:31:21;3.50;99.90
41720;DHT22;27405;53.316;-6.294;2022-12-18T00:33:47;3.50;99.90
41720;DHT22;27405;53.316;-6.294;2022-12-18T00:36:16;3.60;99.90
41720;DHT22;27405;53.316;-6.294;2022-12-18T00:38:43;3.60;99.90
41720;DHT22;27405;53.316;-6.294;2022-12-18T00:41:09;3.60;99.90
41720;DHT22;27405;53.316;-6.294;2022-12-18T00:43:38;3.60;99.90
41720;DHT22;27405;53.316;-6.294;2022-12-18T00:46:04;3.60;99.90
41720;DHT22;27405;53.316;-6.294;2022-12-18T00:48:30;3.60;99.90
41720;DHT22;27405;53.316;-6.294;2022-12-18T00:50:56;3.60;99.90
41720;DHT22;27405;53.316;-6.294;2022-12-18T00:53:21;3.60;99.90
41720;DHT22;27405;53.316;-6.294;2022-12-18T00:55:47;3.70;99.90
41720;DHT22;27405;53.316;-6.294;2022-12-18T00:58:15;3.70;99.90
41720;DHT22;27405;53.316;-6.294;2022-12-18T01:00:42;3.70;99.90
41720;DHT22;27405;53.316;-6.294;2022-12-18T01:03:08;3.70;99.90
41720;DHT22;27405;53.316;-6.294;2022-12-18T01:05:42;3.70;99.90
41720;DHT22;27405;53.316;-6.294;2022-12-18T01:08:08;3.80;99.90
41720;DHT22;27405;53.316;-6.294;2022-12-18T01:10:33;3.70;99.90
41720;DHT22;27405;53.316;-6.294;2022-12-18T01:12:59;3.80;99.90
41720;DHT22;27405;53.316;-6.294;2022-12-18T01:15:25;3.80;99.90
41720;DHT22;27405;53.316;-6.294;2022-12-18T01:17:52;3.80;99.90
41720;DHT22;27405;53.316;-6.294;2022-12-18T01:20:18;3.90;99.90
41720;DHT22;27405;53.316;-6.294;2022-12-18T01:22:44;4.00;99.90
41720;DHT22;27405;53.316;-6.294;2022-12-18T01:25:10;4.10;99.90
41720;DHT22;27405;53.316;-6.294;2022-12-18T01:27:35;4.30;99.90
41720;DHT22;27405;53.316;-6.294;2022-12-18T01:30:01;4.40;99.90
41720;DHT22;27405;53.316;-6.294;2022-12-18T01:32:30;4.60;99.90
41720;DHT22;27405;53.316;-6.294;2022-12-18T01:34:56;4.60;99.90
41720;DHT22;27405;53.316;-6.294;2022-12-18T01:37:21;4.70;99.90
41720;DHT22;27405;53.316;-6.294;2022-12-18T01:39:47;4.80;99.90
41720;DHT22;27405;53.316;-6.294;2022-12-18T01:42:15;4.80;99.90
41720;DHT22;27405;53.316;-6.294;2022-12-18T01:44:54;4.90;99.90
41720;DHT22;27405;53.316;-6.294;2022-12-18T01:49:57;4.90;99.90
41720;DHT22;27405;53.316;-6.294;2022-12-18T01:52:26;4.80;99.90
41720;DHT22;27405;53.316;-6.294;2022-12-18T01:54:54;4.80;99.90
41720;DHT22;27405;53.316;-6.294;2022-12-18T01:57:22;4.80;99.90
41720;DHT22;27405;53.316;-6.294;2022-12-18T01:59:52;4.80;99.90
41720;DHT22;27405;53.316;-6.294;2022-12-18T02:02:19;4.80;99.90
41720;DHT22;27405;53.316;-6.294;2022-12-18T02:04:45;4.70;99.90
41720;DHT22;27405;53.316;-6.294;2022-12-18T02:07:23;4.70;99.90
41720;DHT22;27405;53.316;-6.294;2022-12-18T02:10:30;4.70;99.90
41720;DHT22;27405;53.316;-6.294;2022-12-18T02:13:22;4.70;99.90
41720;DHT22;27405;53.316;-6.294;2022-12-18T02:19:03;4.70;99.90
41720;DHT22;27405;53.316;-6.294;2022-12-18T02:22:00;4.70;99.90
41720;DHT22;27405;53.316;-6.294;2022-12-18T02:24:41;4.70;99.90
41720;DHT22;27405;53.316;-6.294;2022-12-18T02:27:11;4.80;99.90
41720;DHT22;27405;53.316;-6.294;2022-12-18T02:29:47;4.90;99.90
41720;DHT22;27405;53.316;-6.294;2022-12-18T02:32:22;4.90;99.90
41720;DHT22;27405;53.316;-6.294;2022-12-18T02:34:51;4.90;99.90
41720;DHT22;27405;53.316;-6.294;2022-12-18T02:37:18;4.90;99.90
41720;DHT22;27405;53.316;-6.294;2022-12-18T02:39:47;4.90;99.90
41720;DHT22;27405;53.316;-6.294;2022-12-18T02:42:14;4.90;99.90
41720;DHT22;27405;53.316;-6.294;2022-12-18T02:44:43;4.90;99.90
41720;DHT22;27405;53.316;-6.294;2022-12-18T02:47:11;5.00;99.90
41720;DHT22;27405;53.316;-6.294;2022-12-18T02:57:58;5.10;99.90
41720;DHT22;27405;53.316;-6.294;2022-12-18T03:03:26;5.10;99.90
41720;DHT22;27405;53.316;-6.294;2022-12-18T03:06:10;5.10;99.90
41720;DHT22;27405;53.316;-6.294;2022-12-18T03:08:42;5.10;99.90
41720;DHT22;27405;53.316;-6.294;2022-12-18T03:11:10;5.20;99.90
41720;DHT22;27405;53.316;-6.294;2022-12-18T03:13:50;5.20;99.90
41720;DHT22;27405;53.316;-6.294;2022-12-18T03:16:28;5.30;99.90
41720;DHT22;27405;53.316;-6.294;2022-12-18T03:19:24;5.30;99.90
41720;DHT22;27405;53.316;-6.294;2022-12-18T03:21:56;5.30;99.90
41720;DHT22;27405;53.316;-6.294;2022-12-18T03:24:23;5.30;99.90
41720;DHT22;27405;53.316;-6.294;2022-12-18T03:26:53;5.40;99.90
41720;DHT22;27405;53.316;-6.294;2022-12-18T03:29:36;5.40;99.90
41720;DHT22;27405;53.316;-6.294;2022-12-18T03:32:15;5.40;99.90
41720;DHT22;27405;53.316;-6.294;2022-12-18T03:34:42;5.40;99.90
41720;DHT22;27405;53.316;-6.294;2022-12-18T03:37:09;5.50;99.90
41720;DHT22;27405;53.316;-6.294;2022-12-18T03:39:35;5.50;99.90
41720;DHT22;27405;53.316;-6.294;2022-12-18T03:42:05;5.50;99.90
41720;DHT22;27405;53.316;-6.294;2022-12-18T03:55:49;5.60;99.90
41720;DHT22;27405;53.316;-6.294;2022-12-18T03:58:19;5.60;99.90
41720;DHT22;27405;53.316;-6.294;2022-12-18T04:00:46;5.60;99.90
41720;DHT22;27405;53.316;-6.294;2022-12-18T04:03:14;5.60;99.90
41720;DHT22;27405;53.316;-6.294;2022-12-18T04:05:42;5.60;99.90
41720;DHT22;27405;53.316;-6.294;2022-12-18T04:08:08;5.60;99.90
41720;DHT22;27405;53.316;-6.294;2022-12-18T04:10:34;5.60;99.90
41720;DHT22;27405;53.316;-6.294;2022-12-18T04:13:03;5.60;99.90
41720;DHT22;27405;53.316;-6.294;2022-12-18T04:15:28;5.60;99.90
41720;DHT22;27405;53.316;-6.294;2022-12-18T04:17:54;5.60;99.90
41720;DHT22;27405;53.316;-6.294;2022-12-18T04:20:20;5.70;99.90
41720;DHT22;27405;53.316;-6.294;2022-12-18T04:22:46;5.70;99.90
41720;DHT22;27405;53.316;-6.294;2022-12-18T04:25:12;5.70;99.90
41720;DHT22;27405;53.316;-6.294;2022-12-18T04:27:37;5.70;99.90
41720;DHT22;27405;53.316;-6.294;2022-12-18T04:30:04;5.70;99.90
41720;DHT22;27405;53.316;-6.294;2022-12-18T04:32:29;5.70;99.90
41720;DHT22;27405;53.316;-6.294;2022-12-18T04:34:56;5.70;99.90
41720;DHT22;27405;53.316;-6.294;2022-12-18T04:37:21;5.70;99.90
41720;DHT22;27405;53.316;-6.294;2022-12-18T04:39:47;5.70;99.90
41720;DHT22;27405;53.316;-6.294;2022-12-18T04:42:13;5.80;99.90
41720;DHT22;27405;53.316;-6.294;2022-12-18T04:44:38;5.80;99.90
41720;DHT22;27405;53.316;-6.294;2022-12-18T04:47:04;5.80;99.90
41720;DHT22;27405;53.316;-6.294;2022-12-18T04:49:30;5.80;99.90
41720;DHT22;27405;53.316;-6.294;2022-12-18T04:51:55;5.80;99.90
41720;DHT22;27405;53.316;-6.294;2022-12-18T04:54:21;5.80;99.90
41720;DHT22;27405;53.316;-6.294;2022-12-18T04:56:47;5.80;99.90
41720;DHT22;27405;53.316;-6.294;2022-12-18T04:59:12;5.90;99.90
41720;DHT22;27405;53.316;-6.294;2022-12-18T05:01:38;5.90;99.90
41720;DHT22;27405;53.316;-6.294;2022-12-18T05:04:04;5.90;99.90
41720;DHT22;27405;53.316;-6.294;2022-12-18T05:06:29;5.90;99.90
41720;DHT22;27405;53.316;-6.294;2022-12-18T05:08:55;5.90;99.90
41720;DHT22;27405;53.316;-6.294;2022-12-18T05:11:21;5.90;99.90
41720;DHT22;27405;53.316;-6.294;2022-12-18T05:13:47;5.90;99.90
41720;DHT22;27405;53.316;-6.294;2022-12-18T05:16:13;6.00;99.90
41720;DHT22;27405;53.316;-6.294;2022-12-18T05:18:39;6.00;99.90
41720;DHT22;27405;53.316;-6.294;2022-12-18T05:21:05;6.00;99.90
41720;DHT22;27405;53.316;-6.294;2022-12-18T05:23:31;6.00;99.90
41720;DHT22;27405;53.316;-6.294;2022-12-18T05:26:02;6.00;99.90
41720;DHT22;27405;53.316;-6.294;2022-12-18T05:28:30;6.00;99.90
41720;DHT22;27405;53.316;-6.294;2022-12-18T05:30:58;6.00;99.90
41720;DHT22;27405;53.316;-6.294;2022-12-18T05:33:25;6.00;99.90
41720;DHT22;27405;53.316;-6.294;2022-12-18T05:35:53;6.00;99.90
41720;DHT22;27405;53.316;-6.294;2022-12-18T05:38:20;6.00;99.90
41720;DHT22;27405;53.316;-6.294;2022-12-18T05:40:47;6.00;99.90
41720;DHT22;27405;53.316;-6.294;2022-12-18T05:43:13;6.00;99.90
41720;DHT22;27405;53.316;-6.294;2022-12-18T05:45:40;6.00;99.90
41720;DHT22;27405;53.316;-6.294;2022-12-18T05:48:06;6.00;99.90
41720;DHT22;27405;53.316;-6.294;2022-12-18T05:50:36;6.00;99.90
41720;DHT22;27405;53.316;-6.294;2022-12-18T05:53:03;5.90;99.90
41720;DHT22;27405;53.316;-6.294;2022-12-18T05:55:29;6.00;99.90
41720;DHT22;27405;53.316;-6.294;2022-12-18T05:57:54;5.90;99.90
41720;DHT22;27405;53.316;-6.294;2022-12-18T06:00:20;5.90;99.90
41720;DHT22;27405;53.316;-6.294;2022-12-18T06:02:49;5.90;99.90
41720;DHT22;27405;53.316;-6.294;2022-12-18T06:05:14;5.90;99.90
41720;DHT22;27405;53.316;-6.294;2022-12-18T06:07:40;5.90;99.90
41720;DHT22;27405;53.316;-6.294;2022-12-18T06:10:06;5.90;99.90
41720;DHT22;27405;53.316;-6.294;2022-12-18T06:12:32;5.90;99.90
41720;DHT22;27405;53.316;-6.294;2022-12-18T06:14:59;5.90;99.90
41720;DHT22;27405;53.316;-6.294;2022-12-18T06:17:32;5.90;99.90
41720;DHT22;27405;53.316;-6.294;2022-12-18T06:19:58;5.90;99.90
41720;DHT22;27405;53.316;-6.294;2022-12-18T06:22:24;5.90;99.90
41720;DHT22;27405;53.316;-6.294;2022-12-18T06:24:50;5.90;99.90
41720;DHT22;27405;53.316;-6.294;2022-12-18T06:27:16;5.90;99.90
41720;DHT22;27405;53.316;-6.294;2022-12-18T06:29:42;5.90;99.90
41720;DHT22;27405;53.316;-6.294;2022-12-18T06:32:08;5.90;99.90
41720;DHT22;27405;53.316;-6.294;2022-12-18T06:34:34;5.90;99.90
41720;DHT22;27405;53.316;-6.294;2022-12-18T06:37:00;5.90;99.90
41720;DHT22;27405;53.316;-6.294;2022-12-18T06:39:28;5.90;99.90
41720;DHT22;27405;53.316;-6.294;2022-12-18T06:41:54;5.90;99.90
41720;DHT22;27405;53.316;-6.294;2022-12-18T06:44:19;5.90;99.90
41720;DHT22;27405;53.316;-6.294;2022-12-18T06:46:45;5.90;99.90
41720;DHT22;27405;53.316;-6.294;2022-12-18T06:49:11;5.90;99.90
41720;DHT22;27405;53.316;-6.294;2022-12-18T06:51:37;5.90;99.90
41720;DHT22;27405;53.316;-6.294;2022-12-18T06:54:03;5.90;99.90
41720;DHT22;27405;53.316;-6.294;2022-12-18T06:56:29;5.90;99.90
41720;DHT22;27405;53.316;-6.294;2022-12-18T06:58:54;5.90;99.90
41720;DHT22;27405;53.316;-6.294;2022-12-18T07:01:20;5.90;99.90
41720;DHT22;27405;53.316;-6.294;2022-12-18T07:03:46;5.80;99.90
41720;DHT22;27405;53.316;-6.294;2022-12-18T07:06:15;5.80;99.90
41720;DHT22;27405;53.316;-6.294;2022-12-18T07:08:41;5.80;99.90
41720;DHT22;27405;53.316;-6.294;2022-12-18T07:11:06;5.80;99.90
41720;DHT22;27405;53.316;-6.294;2022-12-18T07:13:32;5.80;99.90
41720;DHT22;27405;53.316;-6.294;2022-12-18T07:16:09;5.70;99.90
41720;DHT22;27405;53.316;-6.294;2022-12-18T07:18:35;5.70;99.90
41720;DHT22;27405;53.316;-6.294;2022-12-18T07:21:19;5.70;99.90
41720;DHT22;27405;53.316;-6.294;2022-12-18T07:23:45;5.70;99.90
41720;DHT22;27405;53.316;-6.294;2022-12-18T07:26:14;5.70;99.90
41720;DHT22;27405;53.316;-6.294;2022-12-18T07:28:41;5.70;99.90
41720;DHT22;27405;53.316;-6.294;2022-12-18T07:31:19;5.70;99.90
41720;DHT22;27405;53.316;-6.294;2022-12-18T07:33:45;5.70;99.90
41720;DHT22;27405;53.316;-6.294;2022-12-18T07:36:12;5.70;99.90
41720;DHT22;27405;53.316;-6.294;2022-12-18T07:38:38;5.70;99.90
41720;DHT22;27405;53.316;-6.294;2022-12-18T07:41:09;5.60;99.90
41720;DHT22;27405;53.316;-6.294;2022-12-18T07:43:35;5.60;99.90
41720;DHT22;27405;53.316;-6.294;2022-12-18T07:46:01;5.60;99.90
41720;DHT22;27405;53.316;-6.294;2022-12-18T07:48:28;5.60;99.90
41720;DHT22;27405;53.316;-6.294;2022-12-18T07:50:57;5.60;99.90
41720;DHT22;27405;53.316;-6.294;2022-12-18T07:53:23;5.60;99.90
41720;DHT22;27405;53.316;-6.294;2022-12-18T07:55:49;5.60;99.90
41720;DHT22;27405;53.316;-6.294;2022-12-18T07:58:14;5.60;99.90
41720;DHT22;27405;53.316;-6.294;2022-12-18T08:00:40;5.60;99.90
41720;DHT22;27405;53.316;-6.294;2022-12-18T08:03:05;5.60;99.90
41720;DHT22;27405;53.316;-6.294;2022-12-18T08:05:31;5.60;99.90
41720;DHT22;27405;53.316;-6.294;2022-12-18T08:07:58;5.60;99.90
41720;DHT22;27405;53.316;-6.294;2022-12-18T08:10:23;5.60;99.90
41720;DHT22;27405;53.316;-6.294;2022-12-18T08:12:50;5.60;99.90
41720;DHT22;27405;53.316;-6.294;2022-12-18T08:15:16;5.60;99.90
41720;DHT22;27405;53.316;-6.294;2022-12-18T08:17:42;5.70;99.90
41720;DHT22;27405;53.316;-6.294;2022-12-18T08:20:08;5.70;99.90
41720;DHT22;27405;53.316;-6.294;2022-12-18T08:22:35;5.60;99.90
41720;DHT22;27405;53.316;-6.294;2022-12-18T08:25:04;5.70;99.90
41720;DHT22;27405;53.316;-6.294;2022-12-18T08:27:30;5.70;99.90
41720;DHT22;27405;53.316;-6.294;2022-12-18T08:29:56;5.60;99.90
41720;DHT22;27405;53.316;-6.294;2022-12-18T08:32:23;5.60;99.90
41720;DHT22;27405;53.316;-6.294;2022-12-18T08:34:49;5.70;99.90
41720;DHT22;27405;53.316;-6.294;2022-12-18T08:37:14;5.60;99.90
41720;DHT22;27405;53.316;-6.294;2022-12-18T08:39:40;5.60;99.90
41720;DHT22;27405;53.316;-6.294;2022-12-18T08:42:06;5.60;99.90
41720;DHT22;27405;53.316;-6.294;2022-12-18T08:44:50;5.60;99.90
41720;DHT22;27405;53.316;-6.294;2022-12-18T08:47:15;5.70;99.90
41720;DHT22;27405;53.316;-6.294;2022-12-18T08:49:41;5.70;99.90
41720;DHT22;27405;53.316;-6.294;2022-12-18T08:52:07;5.70;99.90
41720;DHT22;27405;53.316;-6.294;2022-12-18T08:54:33;5.70;99.90
41720;DHT22;27405;53.316;-6.294;2022-12-18T08:56:58;5.70;99.90
41720;DHT22;27405;53.316;-6.294;2022-12-18T08:59:24;5.70;99.90
41720;DHT22;27405;53.316;-6.294;2022-12-18T09:01:50;5.80;99.90
41720;DHT22;27405;53.316;-6.294;2022-12-18T09:04:16;5.70;99.90
41720;DHT22;27405;53.316;-6.294;2022-12-18T09:06:42;5.80;99.90
41720;DHT22;27405;53.316;-6.294;2022-12-18T09:09:09;5.80;99.90
41720;DHT22;27405;53.316;-6.294;2022-12-18T09:11:35;5.80;99.90
41720;DHT22;27405;53.316;-6.294;2022-12-18T09:14:01;5.80;99.90
41720;DHT22;27405;53.316;-6.294;2022-12-18T09:16:27;5.80;99.90
41720;DHT22;27405;53.316;-6.294;2022-12-18T09:18:55;5.80;99.90
41720;DHT22;27405;53.316;-6.294;2022-12-18T09:21:26;5.90;99.90
41720;DHT22;27405;53.316;-6.294;2022-12-18T09:23:53;5.90;99.90
41720;DHT22;27405;53.316;-6.294;2022-12-18T09:26:19;5.90;99.90
41720;DHT22;27405;53.316;-6.294;2022-12-18T09:28:45;5.90;99.90
41720;DHT22;27405;53.316;-6.294;2022-12-18T09:31:12;5.90;99.90
41720;DHT22;27405;53.316;-6.294;2022-12-18T09:33:41;6.00;99.90
41720;DHT22;27405;53.316;-6.294;2022-12-18T09:36:09;6.00;99.90
41720;DHT22;27405;53.316;-6.294;2022-12-18T09:38:35;6.00;99.90
41720;DHT22;27405;53.316;-6.294;2022-12-18T09:43:50;6.10;99.90
41720;DHT22;27405;53.316;-6.294;2022-12-18T09:46:26;6.10;99.90
41720;DHT22;27405;53.316;-6.294;2022-12-18T09:48:56;6.20;99.90
41720;DHT22;27405;53.316;-6.294;2022-12-18T09:51:57;6.20;99.90
41720;DHT22;27405;53.316;-6.294;2022-12-18T09:54:38;6.20;99.90
41720;DHT22;27405;53.316;-6.294;2022-12-18T09:57:23;6.20;99.90
41720;DHT22;27405;53.316;-6.294;2022-12-18T10:00:03;6.30;99.90
41720;DHT22;27405;53.316;-6.294;2022-12-18T10:02:30;6.30;99.90
41720;DHT22;27405;53.316;-6.294;2022-12-18T10:05:15;6.30;99.90
41720;DHT22;27405;53.316;-6.294;2022-12-18T10:21:37;6.40;99.90
41720;DHT22;27405;53.316;-6.294;2022-12-18T10:24:22;6.40;99.90
41720;DHT22;27405;53.316;-6.294;2022-12-18T10:26:52;6.50;99.90
41720;DHT22;27405;53.316;-6.294;2022-12-18T10:29:18;6.50;99.90
41720;DHT22;27405;53.316;-6.294;2022-12-18T10:31:44;6.50;99.90
41720;DHT22;27405;53.316;-6.294;2022-12-18T10:34:14;6.60;99.90
41720;DHT22;27405;53.316;-6.294;2022-12-18T10:36:40;6.50;99.90
41720;DHT22;27405;53.316;-6.294;2022-12-18T10:39:21;6.60;99.90
41720;DHT22;27405;53.316;-6.294;2022-12-18T10:41:48;6.60;99.90
41720;DHT22;27405;53.316;-6.294;2022-12-18T10:44:22;6.60;99.90
41720;DHT22;27405;53.316;-6.294;2022-12-18T10:46:54;6.60;99.90
41720;DHT22;27405;53.316;-6.294;2022-12-18T10:49:29;6.60;99.90
41720;DHT22;27405;53.316;-6.294;2022-12-18T10:52:28;6.60;99.90
41720;DHT22;27405;53.316;-6.294;2022-12-18T10:59:52;6.60;99.90
41720;DHT22;27405;53.316;-6.294;2022-12-18T11:02:36;6.60;99.90
41720;DHT22;27405;53.316;-6.294;2022-12-18T11:05:02;6.60;99.90
41720;DHT22;27405;53.316;-6.294;2022-12-18T11:07:48;6.60;99.90
41720;DHT22;27405;53.316;-6.294;2022-12-18T11:10:19;6.60;99.90
41720;DHT22;27405;53.316;-6.294;2022-12-18T11:12:45;6.60;99.90
41720;DHT22;27405;53.316;-6.294;2022-12-18T11:15:30;6.60;99.90
41720;DHT22;27405;53.316;-6.294;2022-12-18T11:17:56;6.60;99.90
41720;DHT22;27405;53.316;-6.294;2022-12-18T11:20:35;6.70;99.90
41720;DHT22;27405;53.316;-6.294;2022-12-18T11:23:03;6.70;99.90
41720;DHT22;27405;53.316;-6.294;2022-12-18T11:25:30;6.70;99.90
41720;DHT22;27405;53.316;-6.294;2022-12-18T11:28:00;6.70;99.90
41720;DHT22;27405;53.316;-6.294;2022-12-18T11:30:32;6.80;99.90
41720;DHT22;27405;53.316;-6.294;2022-12-18T11:33:00;6.80;99.90
41720;DHT22;27405;53.316;-6.294;2022-12-18T11:38:23;6.90;99.90
41720;DHT22;27405;53.316;-6.294;2022-12-18T11:40:53;6.90;99.90
41720;DHT22;27405;53.316;-6.294;2022-12-18T11:43:27;6.90;99.90
41720;DHT22;27405;53.316;-6.294;2022-12-18T11:46:01;7.00;99.90
41720;DHT22;27405;53.316;-6.294;2022-12-18T11:48:34;7.00;99.90
41720;DHT22;27405;53.316;-6.294;2022-12-18T11:51:05;7.10;99.90
41720;DHT22;27405;53.316;-6.294;2022-12-18T11:53:34;7.20;99.90
41720;DHT22;27405;53.316;-6.294;2022-12-18T11:56:29;7.20;99.90
41720;DHT22;27405;53.316;-6.294;2022-12-18T12:02:49;7.40;99.90
41720;DHT22;27405;53.316;-6.294;2022-12-18T12:13:47;7.60;99.90
41720;DHT22;27405;53.316;-6.294;2022-12-18T12:19:15;7.70;99.90
41720;DHT22;27405;53.316;-6.294;2022-12-18T12:27:45;7.80;99.90
41720;DHT22;27405;53.316;-6.294;2022-12-18T12:41:31;8.20;99.90
41720;DHT22;27405;53.316;-6.294;2022-12-18T12:44:24;8.30;99.90
41720;DHT22;27405;53.316;-6.294;2022-12-18T12:46:52;8.30;99.90
41720;DHT22;27405;53.316;-6.294;2022-12-18T12:49:21;8.40;99.90
41720;DHT22;27405;53.316;-6.294;2022-12-18T12:52:38;8.40;99.90
41720;DHT22;27405;53.316;-6.294;2022-12-18T12:54:56;8.40;99.90
41720;DHT22;27405;53.316;-6.294;2022-12-18T12:57:34;8.50;99.90
41720;DHT22;27405;53.316;-6.294;2022-12-18T13:02:42;8.50;99.90
41720;DHT22;27405;53.316;-6.294;2022-12-18T13:08:05;8.60;99.90
41720;DHT22;27405;53.316;-6.294;2022-12-18T13:10:42;8.70;99.90
41720;DHT22;27405;53.316;-6.294;2022-12-18T13:13:12;8.70;99.90
41720;DHT22;27405;53.316;-6.294;2022-12-18T13:15:42;8.80;99.90
41720;DHT22;27405;53.316;-6.294;2022-12-18T13:25:58;8.80;99.90
41720;DHT22;27405;53.316;-6.294;2022-12-18T13:31:02;8.90;99.90
41720;DHT22;27405;53.316;-6.294;2022-12-18T13:36:02;8.90;99.90
41720;DHT22;27405;53.316;-6.294;2022-12-18T13:38:36;9.00;99.90
41720;DHT22;27405;53.316;-6.294;2022-12-18T13:43:42;9.20;99.90
41720;DHT22;27405;53.316;-6.294;2022-12-18T13:51:43;9.30;99.90
41720;DHT22;27405;53.316;-6.294;2022-12-18T13:56:46;9.40;99.90
41720;DHT22;27405;53.316;-6.294;2022-12-18T13:59:25;9.40;99.90
41720;DHT22;27405;53.316;-6.294;2022-12-18T14:02:15;9.50;99.90
41720;DHT22;27405;53.316;-6.294;2022-12-18T14:04:45;9.50;99.90
41720;DHT22;27405;53.316;-6.294;2022-12-18T14:07:14;9.50;99.90
41720;DHT22;27405;53.316;-6.294;2022-12-18T14:09:46;9.50;99.90
41720;DHT22;27405;53.316;-6.294;2022-12-18T14:12:33;9.50;99.90
41720;DHT22;27405;53.316;-6.294;2022-12-18T14:15:38;9.50;99.90
41720;DHT22;27405;53.316;-6.294;2022-12-18T14:18:21;9.40;99.90
41720;DHT22;27405;53.316;-6.294;2022-12-18T14:20:48;9.40;99.90
41720;DHT22;27405;53.316;-6.294;2022-12-18T14:23:39;9.40;99.90
41720;DHT22;27405;53.316;-6.294;2022-12-18T14:28:50;9.50;99.90
41720;DHT22;27405;53.316;-6.294;2022-12-18T14:31:29;9.50;99.90
41720;DHT22;27405;53.316;-6.294;2022-12-18T14:33:56;9.50;99.90
41720;DHT22;27405;53.316;-6.294;2022-12-18T14:36:27;9.50;99.90
41720;DHT22;27405;53.316;-6.294;2022-12-18T14:38:55;9.60;99.90
41720;DHT22;27405;53.316;-6.294;2022-12-18T14:41:21;9.60;99.90
41720;DHT22;27405;53.316;-6.294;2022-12-18T14:43:49;9.60;99.90
41720;DHT22;27405;53.316;-6.294;2022-12-18T14:51:56;9.60;99.90
41720;DHT22;27405;53.316;-6.294;2022-12-18T14:54:27;9.70;99.90
41720;DHT22;27405;53.316;-6.294;2022-12-18T14:57:17;9.60;99.90
41720;DHT22;27405;53.316;-6.294;2022-12-18T14:59:46;9.70;99.90
41720;DHT22;27405;53.316;-6.294;2022-12-18T15:02:25;9.60;99.90
41720;DHT22;27405;53.316;-6.294;2022-12-18T15:05:03;9.60;99.90
41720;DHT22;27405;53.316;-6.294;2022-12-18T15:07:49;9.60;99.90
41720;DHT22;27405;53.316;-6.294;2022-12-18T15:10:18;9.60;99.90
41720;DHT22;27405;53.316;-6.294;2022-12-18T15:20:48;9.60;99.90
41720;DHT22;27405;53.316;-6.294;2022-12-18T15:23:21;9.60;99.90
41720;DHT22;27405;53.316;-6.294;2022-12-18T15:25:58;9.50;99.90
41720;DHT22;27405;53.316;-6.294;2022-12-18T15:33:40;9.50;99.90
41720;DHT22;27405;53.316;-6.294;2022-12-18T15:36:12;9.50;99.90
41720;DHT22;27405;53.316;-6.294;2022-12-18T15:38:37;9.50;99.90
41720;DHT22;27405;53.316;-6.294;2022-12-18T15:41:34;9.50;99.90
41720;DHT22;27405;53.316;-6.294;2022-12-18T15:43:59;9.40;99.90
41720;DHT22;27405;53.316;-6.294;2022-12-18T15:46:25;9.30;99.90
41720;DHT22;27405;53.316;-6.294;2022-12-18T15:48:56;9.30;99.90
41720;DHT22;27405;53.316;-6.294;2022-12-18T15:51:33;9.20;99.90
41720;DHT22;27405;53.316;-6.294;2022-12-18T15:54:03;9.20;99.90
41720;DHT22;27405;53.316;-6.294;2022-12-18T15:56:30;9.20;99.90
41720;DHT22;27405;53.316;-6.294;2022-12-18T15:59:17;9.10;99.90
41720;DHT22;27405;53.316;-6.294;2022-12-18T16:01:52;9.10;99.90
41720;DHT22;27405;53.316;-6.294;2022-12-18T16:04:22;9.10;99.90
41720;DHT22;27405;53.316;-6.294;2022-12-18T16:06:49;9.10;99.90
41720;DHT22;27405;53.316;-6.294;2022-12-18T16:09:15;9.10;99.90
41720;DHT22;27405;53.316;-6.294;2022-12-18T16:11:42;9.10;99.90
41720;DHT22;27405;53.316;-6.294;2022-12-18T16:14:23;9.10;99.90
41720;DHT22;27405;53.316;-6.294;2022-12-18T16:16:57;9.10;99.90
41720;DHT22;27405;53.316;-6.294;2022-12-18T16:19:23;9.20;99.90
41720;DHT22;27405;53.316;-6.294;2022-12-18T16:21:51;9.30;99.90
41720;DHT22;27405;53.316;-6.294;2022-12-18T16:24:20;9.30;99.90
41720;DHT22;27405;53.316;-6.294;2022-12-18T16:26:49;9.30;99.90
41720;DHT22;27405;53.316;-6.294;2022-12-18T16:29:17;9.30;99.90
41720;DHT22;27405;53.316;-6.294;2022-12-18T16:31:43;9.30;99.90
41720;DHT22;27405;53.316;-6.294;2022-12-18T16:34:29;9.30;99.90
41720;DHT22;27405;53.316;-6.294;2022-12-18T16:37:06;9.30;99.90
41720;DHT22;27405;53.316;-6.294;2022-12-18T16:39:35;9.30;99.90
41720;DHT22;27405;53.316;-6.294;2022-12-18T16:42:10;9.30;99.90
41720;DHT22;27405;53.316;-6.294;2022-12-18T16:44:38;9.40;99.90
41720;DHT22;27405;53.316;-6.294;2022-12-18T16:47:04;9.40;99.90
41720;DHT22;27405;53.316;-6.294;2022-12-18T16:49:29;9.40;99.90
41720;DHT22;27405;53.316;-6.294;2022-12-18T16:51:55;9.40;99.90
41720;DHT22;27405;53.316;-6.294;2022-12-18T16:54:21;9.40;99.90
41720;DHT22;27405;53.316;-6.294;2022-12-18T16:56:47;9.50;99.90
41720;DHT22;27405;53.316;-6.294;2022-12-18T16:59:15;9.50;99.90
41720;DHT22;27405;53.316;-6.294;2022-12-18T17:01:40;9.50;99.90
41720;DHT22;27405;53.316;-6.294;2022-12-18T17:04:07;9.60;99.90
41720;DHT22;27405;53.316;-6.294;2022-12-18T17:06:37;9.70;99.90
41720;DHT22;27405;53.316;-6.294;2022-12-18T17:09:09;9.70;99.90
41720;DHT22;27405;53.316;-6.294;2022-12-18T17:11:35;9.70;99.90
41720;DHT22;27405;53.316;-6.294;2022-12-18T17:14:15;9.70;99.90
41720;DHT22;27405;53.316;-6.294;2022-12-18T17:16:41;9.70;99.90
41720;DHT22;27405;53.316;-6.294;2022-12-18T17:19:07;9.70;99.90
41720;DHT22;27405;53.316;-6.294;2022-12-18T17:21:33;9.70;99.90
41720;DHT22;27405;53.316;-6.294;2022-12-18T17:23:59;9.70;99.90
41720;DHT22;27405;53.316;-6.294;2022-12-18T17:26:26;9.80;99.90
41720;DHT22;27405;53.316;-6.294;2022-12-18T17:28:51;9.80;99.90
41720;DHT22;27405;53.316;-6.294;2022-12-18T17:31:20;9.80;99.90
41720;DHT22;27405;53.316;-6.294;2022-12-18T17:33:47;9.80;99.90
41720;DHT22;27405;53.316;-6.294;2022-12-18T17:36:13;9.80;99.90
41720;DHT22;27405;53.316;-6.294;2022-12-18T17:38:43;9.80;99.90
41720;DHT22;27405;53.316;-6.294;2022-12-18T17:41:14;9.70;99.90
41720;DHT22;27405;53.316;-6.294;2022-12-18T17:43:39;9.70;99.90
41720;DHT22;27405;53.316;-6.294;2022-12-18T17:46:13;9.70;99.90
41720;DHT22;27405;53.316;-6.294;2022-12-18T17:48:39;9.70;99.90
41720;DHT22;27405;53.316;-6.294;2022-12-18T17:51:09;9.60;99.90
41720;DHT22;27405;53.316;-6.294;2022-12-18T17:53:35;9.60;99.90
41720;DHT22;27405;53.316;-6.294;2022-12-18T17:56:01;9.60;99.90
41720;DHT22;27405;53.316;-6.294;2022-12-18T17:58:30;9.60;99.90
41720;DHT22;27405;53.316;-6.294;2022-12-18T18:00:59;9.60;99.90
41720;DHT22;27405;53.316;-6.294;2022-12-18T18:03:25;9.60;99.90